createdAt,value
2018-12-29T00:01:42.543Z,102349.47
2018-12-29T00:04:16.668Z,102343.94
2018-12-29T00:06:49.661Z,102340.11
2018-12-29T00:09:22.725Z,102343.92
2018-12-29T00:11:55.814Z,102344.55
2018-12-29T00:14:28.862Z,102345.87
2018-12-29T00:17:01.477Z,102349.00
2018-12-29T00:19:34.450Z,102356.47
2018-12-29T00:22:08.503Z,102341.87
2018-12-29T00:24:53.520Z,102345.48
2018-12-29T00:27:44.272Z,102341.89
2018-12-29T00:30:21.391Z,102345.78
2018-12-29T00:32:54.270Z,102348.52
2018-12-29T00:35:26.967Z,102348.77
2018-12-29T00:37:59.945Z,102349.37
2018-12-29T00:40:32.979Z,102347.28
2018-12-29T00:43:06.905Z,102346.47
2018-12-29T00:45:39.440Z,102349.94
2018-12-29T00:48:12.112Z,102351.41
2018-12-29T00:50:59.938Z,102350.67
2018-12-29T00:53:32.796Z,102361.62
2018-12-29T00:56:05.908Z,102359.59
2018-12-29T00:58:38.780Z,102362.47
2018-12-29T01:01:12.377Z,102352.00
2018-12-29T01:03:44.995Z,102360.91
2018-12-29T01:06:19.843Z,102354.98
2018-12-29T01:08:56.854Z,102355.36
2018-12-29T01:11:29.735Z,102351.13
2018-12-29T01:14:02.492Z,102354.60
2018-12-29T01:16:35.121Z,102355.22
2018-12-29T01:19:14.093Z,102364.39
2018-12-29T01:21:50.300Z,102368.59
2018-12-29T01:24:23.298Z,102359.55
2018-12-29T01:27:00.616Z,102366.53
2018-12-29T01:29:34.289Z,102368.23
2018-12-29T01:32:07.022Z,102368.21
2018-12-29T01:34:41.007Z,102364.73
2018-12-29T01:40:07.103Z,102384.05
2018-12-29T01:42:40.089Z,102383.77
2018-12-29T01:45:19.150Z,102384.98
2018-12-29T01:47:53.817Z,102378.47
2018-12-29T01:50:27.970Z,102377.38
2018-12-29T01:53:03.356Z,102379.31
2018-12-29T01:55:43.056Z,102380.62
2018-12-29T01:58:15.979Z,102382.67
2018-12-29T02:00:48.711Z,102380.52
2018-12-29T02:03:22.116Z,102376.88
2018-12-29T02:05:55.562Z,102377.58
2018-12-29T02:08:31.414Z,102378.67
2018-12-29T02:11:05.596Z,102383.88
2018-12-29T02:13:38.271Z,102377.24
2018-12-29T02:16:11.638Z,102383.88
2018-12-29T02:18:48.979Z,102382.17
2018-12-29T02:21:21.830Z,102382.25
2018-12-29T02:23:54.689Z,102382.76
2018-12-29T02:26:27.766Z,102375.05
2018-12-29T02:29:01.324Z,102375.05
2018-12-29T02:31:34.486Z,102378.04
2018-12-29T02:34:07.736Z,102384.67
2018-12-29T02:36:41.237Z,102381.54
2018-12-29T02:39:13.835Z,102382.14
2018-12-29T02:41:48.607Z,102382.70
2018-12-29T02:44:25.475Z,102380.56
2018-12-29T02:46:58.135Z,102376.59
2018-12-29T02:49:36.845Z,102383.94
2018-12-29T02:52:09.563Z,102374.52
2018-12-29T02:54:42.188Z,102372.94
2018-12-29T02:57:18.427Z,102369.33
2018-12-29T02:59:50.928Z,102366.93
2018-12-29T03:02:24.446Z,102367.89
2018-12-29T03:04:57.418Z,102364.28
2018-12-29T03:07:30.398Z,102376.84
2018-12-29T03:10:03.434Z,102373.94
2018-12-29T03:12:36.083Z,102374.89
2018-12-29T03:15:08.953Z,102374.02
2018-12-29T03:17:42.145Z,102367.16
2018-12-29T03:20:16.831Z,102371.73
2018-12-29T03:22:53.434Z,102368.71
2018-12-29T03:25:26.618Z,102366.68
2018-12-29T03:28:01.036Z,102362.67
2018-12-29T03:30:33.651Z,102357.14
2018-12-29T03:33:10.596Z,102360.25
2018-12-29T03:35:43.710Z,102356.52
2018-12-29T03:38:17.007Z,102357.84
2018-12-29T03:40:49.796Z,102359.52
2018-12-29T03:43:21.150Z,102351.33
2018-12-29T03:45:53.825Z,102350.23
2018-12-29T03:48:26.853Z,102345.91
2018-12-29T03:51:06.266Z,102347.57
2018-12-29T03:53:39.312Z,102343.59
2018-12-29T03:56:12.057Z,102342.27
2018-12-29T03:58:45.080Z,102343.00
2018-12-29T04:01:18.193Z,102342.86
2018-12-29T04:03:51.092Z,102343.00
2018-12-29T04:06:23.531Z,102342.13
2018-12-29T04:10:01.104Z,102338.48
2018-12-29T04:12:39.895Z,102326.69
2018-12-29T04:15:15.203Z,102329.45
2018-12-29T04:17:47.567Z,102318.36
2018-12-29T04:20:21.204Z,102321.61
2018-12-29T04:22:53.666Z,102323.55
2018-12-29T04:25:27.766Z,102310.55
2018-12-29T04:28:01.237Z,102316.11
2018-12-29T04:30:34.267Z,102310.58
2018-12-29T04:33:08.224Z,102311.02
2018-12-29T04:35:41.388Z,102299.12
2018-12-29T04:38:14.770Z,102290.20
2018-12-29T04:40:47.634Z,102296.58
2018-12-29T04:43:20.689Z,102298.61
2018-12-29T04:45:54.394Z,102294.03
2018-12-29T04:48:27.332Z,102287.52
2018-12-29T04:51:00.736Z,102281.44
2018-12-29T04:53:34.733Z,102279.78
2018-12-29T04:56:12.976Z,102282.51
2018-12-29T04:58:49.930Z,102287.99
2018-12-29T05:01:22.319Z,102301.26
2018-12-29T05:03:55.143Z,102316.95
2018-12-29T05:06:28.458Z,102318.50
2018-12-29T05:09:08.869Z,102321.94
2018-12-29T05:11:41.991Z,102314.97
2018-12-29T05:14:14.886Z,102314.72
2018-12-29T05:16:47.166Z,102319.17
2018-12-29T05:19:20.596Z,102317.38
2018-12-29T05:22:00.604Z,102322.67
2018-12-29T05:24:33.866Z,102323.72
2018-12-29T05:27:06.948Z,102320.80
2018-12-29T05:29:43.878Z,102325.71
2018-12-29T05:32:17.093Z,102337.66
2018-12-29T05:34:50.092Z,102332.13
2018-12-29T05:37:27.348Z,102332.23
2018-12-29T05:40:00.371Z,102330.80
2018-12-29T05:42:33.545Z,102337.88
2018-12-29T05:45:07.087Z,102343.55
2018-12-29T05:47:40.241Z,102339.50
2018-12-29T05:50:13.374Z,102343.36
2018-12-29T05:52:46.203Z,102344.36
2018-12-29T05:55:20.014Z,102341.55
2018-12-29T05:58:17.394Z,102339.20
2018-12-29T06:00:50.703Z,102332.86
2018-12-29T06:03:23.454Z,102338.87
2018-12-29T06:05:56.696Z,102342.27
2018-12-29T06:08:29.554Z,102345.25
2018-12-29T06:11:02.609Z,102347.14
2018-12-29T06:13:35.517Z,102343.04
2018-12-29T06:16:08.898Z,102352.36
2018-12-29T06:21:23.032Z,102347.36
2018-12-29T06:23:57.010Z,102343.27
2018-12-29T06:26:29.976Z,102344.81
2018-12-29T06:29:04.174Z,102340.72
2018-12-29T06:31:46.204Z,102338.91
2018-12-29T06:34:22.986Z,102345.26
2018-12-29T06:36:56.304Z,102340.91
2018-12-29T06:39:29.585Z,102349.50
2018-12-29T06:42:04.352Z,102346.66
2018-12-29T06:44:40.098Z,102346.58
2018-12-29T06:47:12.778Z,102346.80
2018-12-29T07:04:18.844Z,102361.34
2018-12-29T07:06:51.431Z,102360.02
2018-12-29T07:09:29.466Z,102356.66
2018-12-29T07:12:02.502Z,102356.91
2018-12-29T07:14:36.770Z,102353.89
2018-12-29T07:17:17.296Z,102358.80
2018-12-29T07:19:54.434Z,102359.50
2018-12-29T07:22:39.541Z,102359.05
2018-12-29T07:25:17.970Z,102367.31
2018-12-29T07:27:51.329Z,102371.41
2018-12-29T07:30:25.257Z,102368.86
2018-12-29T07:33:00.258Z,102380.70
2018-12-29T07:35:38.777Z,102380.77
2018-12-29T07:38:12.776Z,102379.37
2018-12-29T07:40:46.296Z,102381.77
2018-12-29T07:43:24.373Z,102378.00
2018-12-29T07:46:04.223Z,102374.02
2018-12-29T07:48:37.381Z,102371.44
2018-12-29T07:51:11.193Z,102373.06
2018-12-29T07:53:44.785Z,102366.34
2018-12-29T07:56:17.528Z,102366.30
2018-12-29T07:58:50.662Z,102364.83
2018-12-29T08:01:23.790Z,102360.44
2018-12-29T08:03:56.195Z,102362.20
2018-12-29T08:06:29.355Z,102363.53
2018-12-29T08:11:39.869Z,102350.66
2018-12-29T08:14:14.825Z,102350.12
2018-12-29T08:16:47.627Z,102347.05
2018-12-29T08:19:20.153Z,102345.20
2018-12-29T08:21:53.849Z,102345.20
2018-12-29T08:24:27.177Z,102343.50
2018-12-29T08:27:00.065Z,102344.56
2018-12-29T08:29:33.241Z,102342.61
2018-12-29T08:32:06.125Z,102338.14
2018-12-29T08:34:39.163Z,102343.52
2018-12-29T08:37:15.885Z,102338.98
2018-12-29T08:39:49.152Z,102338.98
2018-12-29T08:42:21.973Z,102334.43
2018-12-29T08:44:55.141Z,102322.78
2018-12-29T08:47:28.603Z,102322.89
2018-12-29T08:50:02.122Z,102320.45
2018-12-29T08:52:34.913Z,102316.34
2018-12-29T08:55:11.802Z,102318.00
2018-12-29T08:57:44.814Z,102320.75
2018-12-29T09:00:17.849Z,102323.90
2018-12-29T09:02:54.318Z,102319.70
2018-12-29T09:05:27.271Z,102325.02
2018-12-29T09:08:00.057Z,102326.83
2018-12-29T09:10:33.163Z,102320.00
2018-12-29T09:13:05.780Z,102316.55
2018-12-29T09:15:39.293Z,102326.98
2018-12-29T09:18:12.292Z,102312.98
2018-12-29T09:20:46.703Z,102320.91
2018-12-29T09:23:19.508Z,102315.10
2018-12-29T09:25:52.428Z,102313.28
2018-12-29T09:28:25.395Z,102307.23
2018-12-29T09:30:58.600Z,102302.64
2018-12-29T09:33:31.301Z,102298.34
2018-12-29T09:36:04.769Z,102286.38
2018-12-29T09:38:38.014Z,102272.80
2018-12-29T09:41:10.890Z,102276.77
2018-12-29T09:43:44.139Z,102271.13
2018-12-29T09:46:17.273Z,102268.30
2018-12-29T09:48:50.714Z,102272.09
2018-12-29T09:51:23.047Z,102261.17
2018-12-29T09:53:56.379Z,102250.02
2018-12-29T09:56:28.980Z,102254.65
2018-12-29T09:59:01.917Z,102246.22
2018-12-29T10:01:34.321Z,102248.12
2018-12-29T10:04:07.641Z,102231.22
2018-12-29T10:06:41.978Z,102229.53
2018-12-29T10:09:15.338Z,102224.77
2018-12-29T10:11:48.484Z,102226.63
2018-12-29T10:14:21.434Z,102202.73
2018-12-29T10:16:54.841Z,102200.00
2018-12-29T10:19:27.485Z,102196.61
2018-12-29T10:22:01.120Z,102180.80
2018-12-29T10:24:33.609Z,102171.52
2018-12-29T10:27:06.844Z,102171.12
2018-12-29T10:29:41.816Z,102155.12
2018-12-29T10:32:14.193Z,102169.96
2018-12-29T10:34:46.629Z,102172.55
2018-12-29T10:37:19.990Z,102179.50
2018-12-29T10:39:57.341Z,102189.66
2018-12-29T10:42:30.767Z,102193.06
2018-12-29T10:45:03.177Z,102198.01
2018-12-29T10:47:37.233Z,102202.20
2018-12-29T10:50:13.549Z,102206.13
2018-12-29T10:52:52.466Z,102217.49
2018-12-29T10:55:25.817Z,102212.74
2018-12-29T10:58:07.814Z,102194.06
2018-12-29T11:00:40.717Z,102171.97
2018-12-29T11:03:23.029Z,102175.51
2018-12-29T11:05:56.151Z,102162.95
2018-12-29T11:08:30.294Z,102157.66
2018-12-29T11:11:03.137Z,102142.33
2018-12-29T11:13:41.054Z,102122.92
2018-12-29T11:16:23.687Z,102131.18
2018-12-29T11:18:59.285Z,102127.19
2018-12-29T11:21:39.193Z,102124.66
2018-12-29T11:24:13.910Z,102136.51
2018-12-29T11:26:47.224Z,102137.09
2018-12-29T11:29:27.339Z,102130.62
2018-12-29T11:45:20.013Z,102104.98
2018-12-29T11:48:53.559Z,102091.55
2018-12-29T11:51:32.844Z,102051.89
2018-12-29T11:54:05.893Z,102057.23
2018-12-29T11:56:54.846Z,102072.92
2018-12-29T11:59:40.978Z,102058.20
2018-12-29T12:02:33.995Z,102048.55
2018-12-29T12:08:02.823Z,102080.38
2018-12-29T12:10:48.938Z,102089.52
2018-12-29T12:13:57.746Z,102080.80
2018-12-29T12:19:59.774Z,102066.20
2018-12-29T12:26:11.859Z,102051.77
2018-12-29T12:29:04.715Z,102075.61
2018-12-29T12:31:38.943Z,102084.95
2018-12-29T12:34:41.924Z,102083.41
2018-12-29T12:40:22.413Z,102010.61
2018-12-29T12:43:30.827Z,102017.28
2018-12-29T12:49:30.114Z,102052.30
2018-12-29T12:52:13.740Z,102036.25
2018-12-29T12:58:01.260Z,102051.23
2018-12-29T13:03:32.335Z,102011.53
2018-12-29T13:06:14.646Z,101983.22
2018-12-29T13:16:06.149Z,101937.05
2018-12-29T13:18:57.177Z,101941.40
2018-12-29T13:21:51.136Z,101938.91
2018-12-29T13:24:50.045Z,101940.28
2018-12-29T13:27:38.442Z,101926.77
2018-12-29T13:30:15.428Z,101920.91
2018-12-29T13:35:38.878Z,101900.94
2018-12-29T13:41:45.374Z,101879.10
2018-12-29T13:47:06.101Z,101880.63
2018-12-29T13:49:50.999Z,101875.31
2018-12-29T13:52:41.819Z,101862.62
2018-12-29T13:55:31.618Z,101851.93
2018-12-29T13:58:10.217Z,101861.29
2018-12-29T14:00:50.204Z,101848.27
2018-12-29T14:03:46.138Z,101859.61
2018-12-29T14:06:25.254Z,101847.23
2018-12-29T14:09:09.144Z,101837.07
2018-12-29T14:14:33.480Z,101830.89
2018-12-29T14:17:40.701Z,101821.58
2018-12-29T14:20:19.601Z,101819.22
2018-12-29T14:23:12.863Z,101802.23
2018-12-29T14:25:50.956Z,101807.22
2018-12-29T14:28:24.132Z,101814.19
2018-12-29T14:30:57.009Z,101815.17
2018-12-29T14:33:30.037Z,101805.81
2018-12-29T14:36:02.765Z,101798.13
2018-12-29T14:38:36.725Z,101789.13
2018-12-29T14:41:10.282Z,101781.47
2018-12-29T14:43:55.515Z,101772.34
2018-12-29T14:46:28.733Z,101773.48
2018-12-29T14:49:01.507Z,101770.81
2018-12-29T14:51:34.945Z,101763.31
2018-12-29T14:54:07.805Z,101762.47
2018-12-29T14:56:40.926Z,101769.80
2018-12-29T14:59:18.973Z,101772.84
2018-12-29T15:01:56.901Z,101817.14
2018-12-29T15:04:34.169Z,101856.09
2018-12-29T15:07:07.100Z,101856.41
2018-12-29T15:09:39.968Z,101851.44
2018-12-29T15:12:14.407Z,101834.74
2018-12-29T15:14:47.229Z,101820.08
2018-12-29T15:17:26.534Z,101810.44
2018-12-29T15:20:00.166Z,101806.13
2018-12-29T15:22:34.948Z,101808.44
2018-12-29T15:25:07.765Z,101808.79
2018-12-29T15:27:41.395Z,101809.14
2018-12-29T15:30:15.646Z,101797.81
2018-12-29T15:32:51.733Z,101789.15
2018-12-29T15:35:24.922Z,101778.45
2018-12-29T15:37:57.942Z,101774.98
2018-12-29T15:40:32.354Z,101767.48
2018-12-29T15:45:44.529Z,101762.16
2018-12-29T15:48:17.589Z,101760.81
2018-12-29T15:50:50.605Z,101747.20
2018-12-29T15:53:26.290Z,101746.51
2018-12-29T15:56:01.485Z,101743.00
2018-12-29T15:58:37.985Z,101743.00
2018-12-29T16:01:14.269Z,101749.81
2018-12-29T16:03:49.297Z,101746.48
2018-12-29T16:06:23.765Z,101753.17
2018-12-29T16:09:04.829Z,101761.80
2018-12-29T16:11:40.385Z,101748.80
2018-12-29T16:14:15.789Z,101734.17
2018-12-29T16:16:55.125Z,101742.34
2018-12-29T16:24:37.169Z,101720.19
2018-12-29T16:27:16.512Z,101729.18
2018-12-29T16:29:53.353Z,101734.20
2018-12-29T16:32:25.833Z,101719.19
2018-12-29T16:35:10.578Z,101716.55
2018-12-29T16:37:52.533Z,101729.35
2018-12-29T16:40:33.805Z,101732.20
2018-12-29T16:43:28.776Z,101716.19
2018-12-29T16:46:12.789Z,101718.70
2018-12-29T16:48:51.254Z,101706.04
2018-12-29T16:51:27.867Z,101723.05
2018-12-29T16:54:05.773Z,101714.87
2018-12-29T16:56:38.786Z,101710.20
2018-12-29T16:59:12.459Z,101703.20
2018-12-29T17:01:46.710Z,101705.22
2018-12-29T17:04:19.505Z,101702.23
2018-12-29T17:06:52.587Z,101696.22
2018-12-29T17:09:25.549Z,101683.20
2018-12-29T17:11:59.300Z,101657.54
2018-12-29T17:14:33.233Z,101687.72
2018-12-29T17:17:07.255Z,101674.22
2018-12-29T17:19:43.316Z,101686.53
2018-12-29T17:22:19.508Z,101671.86
2018-12-29T17:24:55.367Z,101688.03
2018-12-29T17:30:32.049Z,101684.05
2018-12-29T17:33:25.877Z,101689.19
2018-12-29T17:36:17.511Z,101666.49
2018-12-29T17:38:55.385Z,101675.99
2018-12-29T17:41:28.576Z,101681.70
2018-12-29T17:44:01.187Z,101669.83
2018-12-29T17:46:43.257Z,101666.50
2018-12-29T17:51:57.258Z,101656.45
2018-12-29T17:54:29.894Z,101648.77
2018-12-29T17:57:06.734Z,101649.41
2018-12-29T17:59:39.633Z,101659.56
2018-12-29T18:02:12.518Z,101659.41
2018-12-29T18:04:45.345Z,101647.68
2018-12-29T18:07:18.345Z,101636.16
2018-12-29T18:09:57.164Z,101641.47
2018-12-29T18:12:27.429Z,101644.02
2018-12-29T18:15:00.292Z,101651.16
2018-12-29T18:17:33.633Z,101635.82
2018-12-29T18:20:06.773Z,101641.31
2018-12-29T18:22:43.844Z,101632.28
2018-12-29T18:25:16.585Z,101635.26
2018-12-29T18:27:50.152Z,101626.41
2018-12-29T18:30:23.681Z,101616.22
2018-12-29T18:32:58.310Z,101611.44
2018-12-29T18:35:32.529Z,101614.41
2018-12-29T18:38:09.749Z,101618.73
2018-12-29T18:40:49.491Z,101623.03
2018-12-29T18:43:25.634Z,101629.56
2018-12-29T18:46:05.502Z,101605.35
2018-12-29T18:48:38.597Z,101612.30
2018-12-29T18:51:12.497Z,101614.41
2018-12-29T18:53:45.789Z,101618.58
2018-12-29T18:56:18.719Z,101602.88
2018-12-29T18:59:08.726Z,101581.09
2018-12-29T19:01:57.822Z,101609.71
2018-12-29T19:04:33.749Z,101626.49
2018-12-29T19:07:19.957Z,101617.28
2018-12-29T19:09:53.738Z,101622.34
2018-12-29T19:12:27.062Z,101630.70
2018-12-29T19:15:07.085Z,101624.11
2018-12-29T19:17:45.893Z,101617.31
2018-12-29T19:20:20.346Z,101609.98
2018-12-29T19:23:11.636Z,101602.99
2018-12-29T19:25:47.964Z,101597.73
2018-12-29T19:28:21.046Z,101601.32
2018-12-29T19:33:39.583Z,101605.06
2018-12-29T19:36:12.753Z,101614.72
2018-12-29T19:38:45.752Z,101612.47
2018-12-29T19:41:23.704Z,101617.95
2018-12-29T19:43:57.844Z,101610.44
2018-12-29T19:46:31.801Z,101608.52
2018-12-29T19:49:10.541Z,101612.45
2018-12-29T19:52:02.608Z,101609.70
2018-12-29T19:54:39.731Z,101620.88
2018-12-29T19:57:15.644Z,101636.14
2018-12-29T19:59:54.981Z,101675.27
2018-12-29T20:05:43.818Z,101659.62
2018-12-29T20:08:19.637Z,101649.63
2018-12-29T20:10:54.598Z,101650.41
2018-12-29T20:13:28.629Z,101665.80
2018-12-29T20:16:03.497Z,101679.95
2018-12-29T20:18:50.097Z,101672.47
2018-12-29T20:21:24.129Z,101672.47
2018-12-29T20:23:56.998Z,101694.58
2018-12-29T20:26:29.801Z,101693.09
2018-12-29T20:29:02.958Z,101688.09
2018-12-29T20:31:36.701Z,101693.63
2018-12-29T20:34:17.702Z,101678.05
2018-12-29T20:36:53.149Z,101681.76
2018-12-29T20:42:34.378Z,101669.96
2018-12-29T20:48:46.680Z,101697.84
2018-12-29T20:51:19.717Z,101701.69
2018-12-29T20:53:58.187Z,101692.03
2018-12-29T20:56:31.898Z,101695.36
2018-12-29T20:59:05.874Z,101691.22
2018-12-29T21:01:38.717Z,101694.06
2018-12-29T21:04:11.882Z,101679.37
2018-12-29T21:06:45.624Z,101679.89
2018-12-29T21:09:18.748Z,101689.88
2018-12-29T21:11:53.203Z,101687.05
2018-12-29T21:14:30.861Z,101661.70
2018-12-29T21:17:04.541Z,101691.89
2018-12-29T21:19:39.073Z,101671.55
2018-12-29T21:22:12.925Z,101686.20
2018-12-29T21:24:46.605Z,101671.84
2018-12-29T21:27:21.225Z,101675.19
2018-12-29T21:30:03.283Z,101670.80
2018-12-29T21:32:46.830Z,101661.99
2018-12-29T21:53:32.963Z,101668.36
2018-12-29T21:56:06.797Z,101683.39
2018-12-29T21:58:45.425Z,101684.86
2018-12-29T22:01:18.782Z,101681.53
2018-12-29T22:03:52.012Z,101676.20
2018-12-29T22:06:24.858Z,101672.50
2018-12-29T22:08:57.564Z,101688.19
2018-12-29T22:11:30.594Z,101672.97
2018-12-29T22:14:03.585Z,101668.83
2018-12-29T22:16:36.504Z,101674.30
2018-12-29T22:19:09.719Z,101694.83
2018-12-29T22:21:42.777Z,101708.50
2018-12-29T22:24:16.884Z,101708.00
2018-12-29T22:26:51.562Z,101699.98
2018-12-29T22:29:24.997Z,101708.01
2018-12-29T22:31:58.297Z,101704.62
2018-12-29T22:34:30.897Z,101710.30
2018-12-29T22:37:08.013Z,101717.98
2018-12-29T22:39:41.098Z,101713.13
2018-12-29T22:42:14.474Z,101721.61
2018-12-29T22:44:47.266Z,101722.30
2018-12-29T22:47:20.273Z,101735.66
2018-12-29T22:49:53.498Z,101715.92
2018-12-29T22:52:27.508Z,101712.26
2018-12-29T22:55:02.633Z,101722.95
2018-12-29T22:57:36.255Z,101725.63
2018-12-29T23:00:14.493Z,101723.98
2018-12-29T23:02:47.333Z,101731.43
2018-12-29T23:05:20.153Z,101740.47
2018-12-29T23:07:53.093Z,101748.80
2018-12-29T23:10:26.545Z,101737.95
2018-12-29T23:12:59.097Z,101745.63
2018-12-29T23:15:32.118Z,101743.95
2018-12-29T23:18:05.578Z,101743.61
2018-12-29T23:20:38.986Z,101747.77
2018-12-29T23:23:12.214Z,101752.63
2018-12-29T23:25:45.857Z,101758.91
2018-12-29T23:28:18.393Z,101742.13
2018-12-29T23:30:51.849Z,101752.16
2018-12-29T23:33:24.549Z,101773.36
2018-12-29T23:35:57.489Z,101776.22
2018-12-29T23:38:30.493Z,101789.05
2018-12-29T23:41:03.897Z,101786.09
2018-12-29T23:43:37.129Z,101809.80
2018-12-29T23:46:10.051Z,101801.14
2018-12-29T23:48:42.869Z,101813.16
2018-12-29T23:51:16.409Z,101816.48
